sensor_id;sensor_type;location;lat;lon;timestamp;P1;durP1;ratioP1;P2;durP2;ratioP2
9076;SDS011;4574;51.072;17.174;2023-11-18T00:01:39;2.77;;;2.50;;
9076;SDS011;4574;51.072;17.174;2023-11-18T00:04:09;4.27;;;2.60;;
9076;SDS011;4574;51.072;17.174;2023-11-18T00:06:42;3.27;;;2.67;;
9076;SDS011;4574;51.072;17.174;2023-11-18T00:09:11;4.33;;;2.80;;
9076;SDS011;4574;51.072;17.174;2023-11-18T00:11:41;3.13;;;2.80;;
9076;SDS011;4574;51.072;17.174;2023-11-18T00:14:11;3.53;;;2.30;;
9076;SDS011;4574;51.072;17.174;2023-11-18T00:16:41;2.73;;;2.30;;
9076;SDS011;4574;51.072;17.174;2023-11-18T00:19:10;3.67;;;2.50;;
9076;SDS011;4574;51.072;17.174;2023-11-18T00:21:38;2.30;;;2.10;;
9076;SDS011;4574;51.072;17.174;2023-11-18T00:24:07;2.77;;;2.57;;
9076;SDS011;4574;51.072;17.174;2023-11-18T00:26:36;2.90;;;2.60;;
9076;SDS011;4574;51.072;17.174;2023-11-18T00:29:05;2.70;;;2.50;;
9076;SDS011;4574;51.072;17.174;2023-11-18T00:31:34;3.13;;;2.70;;
9076;SDS011;4574;51.072;17.174;2023-11-18T00:34:04;3.03;;;2.73;;
9076;SDS011;4574;51.072;17.174;2023-11-18T00:36:33;4.50;;;2.93;;
9076;SDS011;4574;51.072;17.174;2023-11-18T00:39:01;3.37;;;2.60;;
9076;SDS011;4574;51.072;17.174;2023-11-18T00:41:31;3.80;;;2.97;;
9076;SDS011;4574;51.072;17.174;2023-11-18T00:44:01;5.27;;;3.53;;
9076;SDS011;4574;51.072;17.174;2023-11-18T00:46:30;3.23;;;2.77;;
9076;SDS011;4574;51.072;17.174;2023-11-18T00:48:59;3.53;;;3.10;;
9076;SDS011;4574;51.072;17.174;2023-11-18T00:51:30;3.77;;;3.30;;
9076;SDS011;4574;51.072;17.174;2023-11-18T00:53:59;4.00;;;3.40;;
9076;SDS011;4574;51.072;17.174;2023-11-18T00:56:30;3.70;;;3.40;;
9076;SDS011;4574;51.072;17.174;2023-11-18T00:58:59;4.47;;;3.20;;
9076;SDS011;4574;51.072;17.174;2023-11-18T01:01:28;3.60;;;3.30;;
9076;SDS011;4574;51.072;17.174;2023-11-18T01:03:56;4.90;;;3.67;;
9076;SDS011;4574;51.072;17.174;2023-11-18T01:06:26;4.97;;;3.70;;
9076;SDS011;4574;51.072;17.174;2023-11-18T01:08:55;3.80;;;3.33;;
9076;SDS011;4574;51.072;17.174;2023-11-18T01:11:24;5.20;;;4.17;;
9076;SDS011;4574;51.072;17.174;2023-11-18T01:13:53;3.87;;;3.47;;
9076;SDS011;4574;51.072;17.174;2023-11-18T01:16:22;4.10;;;3.70;;
9076;SDS011;4574;51.072;17.174;2023-11-18T01:18:51;4.53;;;3.87;;
9076;SDS011;4574;51.072;17.174;2023-11-18T01:21:19;5.20;;;3.97;;
9076;SDS011;4574;51.072;17.174;2023-11-18T01:23:48;5.20;;;3.90;;
9076;SDS011;4574;51.072;17.174;2023-11-18T01:26:18;5.77;;;4.37;;
9076;SDS011;4574;51.072;17.174;2023-11-18T01:28:48;5.43;;;3.43;;
9076;SDS011;4574;51.072;17.174;2023-11-18T01:31:17;3.50;;;3.20;;
9076;SDS011;4574;51.072;17.174;2023-11-18T01:33:45;4.60;;;3.07;;
9076;SDS011;4574;51.072;17.174;2023-11-18T01:36:16;3.27;;;2.97;;
9076;SDS011;4574;51.072;17.174;2023-11-18T01:38:45;3.83;;;3.10;;
9076;SDS011;4574;51.072;17.174;2023-11-18T01:41:14;3.17;;;2.87;;
9076;SDS011;4574;51.072;17.174;2023-11-18T01:43:46;3.63;;;3.00;;
9076;SDS011;4574;51.072;17.174;2023-11-18T01:46:15;5.97;;;2.73;;
9076;SDS011;4574;51.072;17.174;2023-11-18T01:48:46;3.30;;;2.87;;
9076;SDS011;4574;51.072;17.174;2023-11-18T01:51:15;2.97;;;2.47;;
9076;SDS011;4574;51.072;17.174;2023-11-18T01:53:46;3.30;;;2.53;;
9076;SDS011;4574;51.072;17.174;2023-11-18T01:56:16;3.83;;;2.87;;
9076;SDS011;4574;51.072;17.174;2023-11-18T01:58:49;2.50;;;2.30;;
9076;SDS011;4574;51.072;17.174;2023-11-18T02:01:17;3.27;;;2.47;;
9076;SDS011;4574;51.072;17.174;2023-11-18T02:03:47;3.37;;;2.30;;
9076;SDS011;4574;51.072;17.174;2023-11-18T02:06:16;2.17;;;1.97;;
9076;SDS011;4574;51.072;17.174;2023-11-18T02:08:45;3.33;;;2.57;;
9076;SDS011;4574;51.072;17.174;2023-11-18T02:11:17;2.07;;;1.87;;
9076;SDS011;4574;51.072;17.174;2023-11-18T02:13:52;2.20;;;1.87;;
9076;SDS011;4574;51.072;17.174;2023-11-18T02:16:25;2.20;;;2.00;;
9076;SDS011;4574;51.072;17.174;2023-11-18T02:18:55;2.10;;;1.90;;
9076;SDS011;4574;51.072;17.174;2023-11-18T02:21:24;2.13;;;1.93;;
9076;SDS011;4574;51.072;17.174;2023-11-18T02:23:54;2.00;;;1.80;;
9076;SDS011;4574;51.072;17.174;2023-11-18T02:26:26;2.47;;;1.60;;
9076;SDS011;4574;51.072;17.174;2023-11-18T02:28:55;1.63;;;1.53;;
9076;SDS011;4574;51.072;17.174;2023-11-18T02:31:25;1.87;;;1.77;;
9076;SDS011;4574;51.072;17.174;2023-11-18T02:34:04;1.77;;;1.50;;
9076;SDS011;4574;51.072;17.174;2023-11-18T02:36:39;1.80;;;1.70;;
9076;SDS011;4574;51.072;17.174;2023-11-18T02:39:12;3.07;;;2.00;;
9076;SDS011;4574;51.072;17.174;2023-11-18T02:41:51;2.33;;;1.83;;
9076;SDS011;4574;51.072;17.174;2023-11-18T02:44:23;3.33;;;2.00;;
9076;SDS011;4574;51.072;17.174;2023-11-18T02:46:52;2.07;;;1.80;;
9076;SDS011;4574;51.072;17.174;2023-11-18T02:49:20;2.87;;;2.23;;
9076;SDS011;4574;51.072;17.174;2023-11-18T02:51:49;2.20;;;1.73;;
9076;SDS011;4574;51.072;17.174;2023-11-18T02:54:17;2.07;;;1.90;;
9076;SDS011;4574;51.072;17.174;2023-11-18T02:56:46;3.20;;;1.97;;
9076;SDS011;4574;51.072;17.174;2023-11-18T02:59:16;1.80;;;1.70;;
9076;SDS011;4574;51.072;17.174;2023-11-18T03:01:45;2.27;;;2.07;;
9076;SDS011;4574;51.072;17.174;2023-11-18T03:04:14;2.07;;;1.87;;
9076;SDS011;4574;51.072;17.174;2023-11-18T03:06:42;1.77;;;1.67;;
9076;SDS011;4574;51.072;17.174;2023-11-18T03:09:11;4.03;;;2.00;;
9076;SDS011;4574;51.072;17.174;2023-11-18T03:11:40;2.47;;;2.00;;
9076;SDS011;4574;51.072;17.174;2023-11-18T03:14:10;2.63;;;2.37;;
9076;SDS011;4574;51.072;17.174;2023-11-18T03:16:40;3.37;;;2.67;;
9076;SDS011;4574;51.072;17.174;2023-11-18T03:19:09;4.03;;;2.73;;
9076;SDS011;4574;51.072;17.174;2023-11-18T03:21:40;3.23;;;2.50;;
9076;SDS011;4574;51.072;17.174;2023-11-18T03:24:09;3.63;;;3.17;;
9076;SDS011;4574;51.072;17.174;2023-11-18T03:26:38;3.20;;;2.90;;
9076;SDS011;4574;51.072;17.174;2023-11-18T03:29:07;3.40;;;2.80;;
9076;SDS011;4574;51.072;17.174;2023-11-18T03:31:37;3.23;;;2.93;;
9076;SDS011;4574;51.072;17.174;2023-11-18T03:34:07;3.10;;;2.80;;
9076;SDS011;4574;51.072;17.174;2023-11-18T03:36:37;2.73;;;2.40;;
9076;SDS011;4574;51.072;17.174;2023-11-18T03:39:11;3.53;;;2.67;;
9076;SDS011;4574;51.072;17.174;2023-11-18T03:41:40;2.70;;;2.50;;
9076;SDS011;4574;51.072;17.174;2023-11-18T03:44:11;2.60;;;2.10;;
9076;SDS011;4574;51.072;17.174;2023-11-18T03:46:40;2.60;;;2.40;;
9076;SDS011;4574;51.072;17.174;2023-11-18T03:49:10;3.47;;;2.20;;
9076;SDS011;4574;51.072;17.174;2023-11-18T03:51:39;2.50;;;2.10;;
9076;SDS011;4574;51.072;17.174;2023-11-18T03:54:07;4.13;;;2.00;;
9076;SDS011;4574;51.072;17.174;2023-11-18T03:56:36;2.17;;;1.97;;
9076;SDS011;4574;51.072;17.174;2023-11-18T03:59:05;2.10;;;1.90;;
9076;SDS011;4574;51.072;17.174;2023-11-18T04:01:33;1.87;;;1.77;;
9076;SDS011;4574;51.072;17.174;2023-11-18T04:04:03;2.10;;;1.50;;
9076;SDS011;4574;51.072;17.174;2023-11-18T04:06:33;1.90;;;1.77;;
9076;SDS011;4574;51.072;17.174;2023-11-18T04:09:01;2.13;;;1.63;;
9076;SDS011;4574;51.072;17.174;2023-11-18T04:11:32;1.80;;;1.70;;
9076;SDS011;4574;51.072;17.174;2023-11-18T04:14:01;2.00;;;1.80;;
9076;SDS011;4574;51.072;17.174;2023-11-18T04:16:30;1.63;;;1.53;;
9076;SDS011;4574;51.072;17.174;2023-11-18T04:18:58;1.87;;;1.77;;
9076;SDS011;4574;51.072;17.174;2023-11-18T04:21:26;2.47;;;2.27;;
9076;SDS011;4574;51.072;17.174;2023-11-18T04:23:56;2.57;;;2.37;;
9076;SDS011;4574;51.072;17.174;2023-11-18T04:26:25;3.83;;;2.37;;
9076;SDS011;4574;51.072;17.174;2023-11-18T04:28:53;3.03;;;2.73;;
9076;SDS011;4574;51.072;17.174;2023-11-18T04:31:22;3.33;;;3.03;;
9076;SDS011;4574;51.072;17.174;2023-11-18T04:33:50;4.20;;;2.90;;
9076;SDS011;4574;51.072;17.174;2023-11-18T04:36:19;3.43;;;3.10;;
9076;SDS011;4574;51.072;17.174;2023-11-18T04:38:48;3.57;;;3.07;;
9076;SDS011;4574;51.072;17.174;2023-11-18T04:41:18;4.20;;;3.37;;
9076;SDS011;4574;51.072;17.174;2023-11-18T04:43:47;6.47;;;3.77;;
9076;SDS011;4574;51.072;17.174;2023-11-18T04:46:15;4.40;;;3.63;;
9076;SDS011;4574;51.072;17.174;2023-11-18T04:48:44;5.37;;;4.20;;
9076;SDS011;4574;51.072;17.174;2023-11-18T04:51:13;5.77;;;4.33;;
9076;SDS011;4574;51.072;17.174;2023-11-18T04:53:41;5.33;;;3.90;;
9076;SDS011;4574;51.072;17.174;2023-11-18T04:56:11;5.33;;;4.00;;
9076;SDS011;4574;51.072;17.174;2023-11-18T04:58:41;5.67;;;4.03;;
9076;SDS011;4574;51.072;17.174;2023-11-18T05:01:13;5.17;;;3.97;;
9076;SDS011;4574;51.072;17.174;2023-11-18T05:03:41;6.80;;;4.10;;
9076;SDS011;4574;51.072;17.174;2023-11-18T05:06:10;5.50;;;4.17;;
9076;SDS011;4574;51.072;17.174;2023-11-18T05:08:39;5.00;;;4.10;;
9076;SDS011;4574;51.072;17.174;2023-11-18T05:11:07;5.47;;;4.00;;
9076;SDS011;4574;51.072;17.174;2023-11-18T05:13:36;5.03;;;4.20;;
9076;SDS011;4574;51.072;17.174;2023-11-18T05:16:08;5.97;;;4.30;;
9076;SDS011;4574;51.072;17.174;2023-11-18T05:18:37;5.87;;;4.00;;
9076;SDS011;4574;51.072;17.174;2023-11-18T05:21:07;5.90;;;4.23;;
9076;SDS011;4574;51.072;17.174;2023-11-18T05:23:37;5.50;;;4.23;;
9076;SDS011;4574;51.072;17.174;2023-11-18T05:26:06;6.93;;;4.53;;
9076;SDS011;4574;51.072;17.174;2023-11-18T05:28:35;7.50;;;4.50;;
9076;SDS011;4574;51.072;17.174;2023-11-18T05:31:05;10.13;;;5.23;;
9076;SDS011;4574;51.072;17.174;2023-11-18T05:33:36;6.53;;;5.00;;
9076;SDS011;4574;51.072;17.174;2023-11-18T05:36:05;7.57;;;5.30;;
9076;SDS011;4574;51.072;17.174;2023-11-18T05:38:35;7.90;;;5.87;;
9076;SDS011;4574;51.072;17.174;2023-11-18T05:41:04;9.70;;;6.30;;
9076;SDS011;4574;51.072;17.174;2023-11-18T05:43:43;10.63;;;6.57;;
9076;SDS011;4574;51.072;17.174;2023-11-18T05:46:18;11.37;;;6.57;;
9076;SDS011;4574;51.072;17.174;2023-11-18T05:48:51;9.00;;;6.57;;
9076;SDS011;4574;51.072;17.174;2023-11-18T05:51:20;8.93;;;6.40;;
9076;SDS011;4574;51.072;17.174;2023-11-18T05:53:50;9.57;;;6.47;;
9076;SDS011;4574;51.072;17.174;2023-11-18T05:56:19;9.00;;;6.63;;
9076;SDS011;4574;51.072;17.174;2023-11-18T05:58:50;8.80;;;6.43;;
9076;SDS011;4574;51.072;17.174;2023-11-18T06:01:20;8.87;;;6.70;;
9076;SDS011;4574;51.072;17.174;2023-11-18T06:03:51;8.20;;;6.40;;
9076;SDS011;4574;51.072;17.174;2023-11-18T06:06:20;9.23;;;6.73;;
9076;SDS011;4574;51.072;17.174;2023-11-18T06:08:50;8.40;;;6.20;;
9076;SDS011;4574;51.072;17.174;2023-11-18T06:11:20;9.30;;;6.37;;
9076;SDS011;4574;51.072;17.174;2023-11-18T06:13:50;8.93;;;6.37;;
9076;SDS011;4574;51.072;17.174;2023-11-18T06:16:20;9.33;;;6.87;;
9076;SDS011;4574;51.072;17.174;2023-11-18T06:18:53;11.53;;;7.37;;
9076;SDS011;4574;51.072;17.174;2023-11-18T06:21:22;9.43;;;6.87;;
9076;SDS011;4574;51.072;17.174;2023-11-18T06:23:55;10.70;;;7.27;;
9076;SDS011;4574;51.072;17.174;2023-11-18T06:26:23;10.90;;;7.33;;
9076;SDS011;4574;51.072;17.174;2023-11-18T06:28:53;11.73;;;8.10;;
9076;SDS011;4574;51.072;17.174;2023-11-18T06:31:23;10.97;;;7.53;;
9076;SDS011;4574;51.072;17.174;2023-11-18T06:33:53;11.13;;;7.67;;
9076;SDS011;4574;51.072;17.174;2023-11-18T06:36:21;14.43;;;8.30;;
9076;SDS011;4574;51.072;17.174;2023-11-18T06:38:53;11.67;;;8.33;;
9076;SDS011;4574;51.072;17.174;2023-11-18T06:41:23;14.13;;;8.83;;
9076;SDS011;4574;51.072;17.174;2023-11-18T06:43:53;13.43;;;8.43;;
9076;SDS011;4574;51.072;17.174;2023-11-18T06:46:28;12.40;;;8.03;;
9076;SDS011;4574;51.072;17.174;2023-11-18T06:49:03;14.37;;;8.20;;
9076;SDS011;4574;51.072;17.174;2023-11-18T06:51:34;13.47;;;8.33;;
9076;SDS011;4574;51.072;17.174;2023-11-18T06:54:05;15.53;;;9.50;;
9076;SDS011;4574;51.072;17.174;2023-11-18T06:56:38;15.13;;;8.70;;
9076;SDS011;4574;51.072;17.174;2023-11-18T06:59:09;13.00;;;8.70;;
9076;SDS011;4574;51.072;17.174;2023-11-18T07:01:40;16.60;;;9.90;;
9076;SDS011;4574;51.072;17.174;2023-11-18T07:04:13;13.30;;;9.07;;
9076;SDS011;4574;51.072;17.174;2023-11-18T07:06:42;12.50;;;8.77;;
9076;SDS011;4574;51.072;17.174;2023-11-18T07:09:11;17.13;;;9.93;;
9076;SDS011;4574;51.072;17.174;2023-11-18T07:11:45;16.63;;;9.80;;
9076;SDS011;4574;51.072;17.174;2023-11-18T07:14:15;14.53;;;9.30;;
9076;SDS011;4574;51.072;17.174;2023-11-18T07:16:44;14.20;;;9.63;;
9076;SDS011;4574;51.072;17.174;2023-11-18T07:19:14;12.93;;;8.30;;
9076;SDS011;4574;51.072;17.174;2023-11-18T07:21:48;14.73;;;9.40;;
9076;SDS011;4574;51.072;17.174;2023-11-18T07:24:17;13.60;;;9.53;;
9076;SDS011;4574;51.072;17.174;2023-11-18T07:26:47;19.87;;;9.97;;
9076;SDS011;4574;51.072;17.174;2023-11-18T07:29:18;14.13;;;9.30;;
9076;SDS011;4574;51.072;17.174;2023-11-18T07:31:46;14.17;;;9.03;;
9076;SDS011;4574;51.072;17.174;2023-11-18T07:34:17;13.20;;;8.93;;
9076;SDS011;4574;51.072;17.174;2023-11-18T07:36:46;17.53;;;9.30;;
9076;SDS011;4574;51.072;17.174;2023-11-18T07:39:15;14.30;;;9.53;;
9076;SDS011;4574;51.072;17.174;2023-11-18T07:41:50;16.40;;;9.30;;
9076;SDS011;4574;51.072;17.174;2023-11-18T07:44:19;13.87;;;9.03;;
9076;SDS011;4574;51.072;17.174;2023-11-18T07:46:48;15.13;;;9.60;;
9076;SDS011;4574;51.072;17.174;2023-11-18T07:49:18;13.73;;;8.90;;
9076;SDS011;4574;51.072;17.174;2023-11-18T07:51:52;13.33;;;9.47;;
9076;SDS011;4574;51.072;17.174;2023-11-18T07:54:20;15.20;;;9.80;;
9076;SDS011;4574;51.072;17.174;2023-11-18T07:56:50;15.17;;;9.37;;
9076;SDS011;4574;51.072;17.174;2023-11-18T07:59:20;14.80;;;9.90;;
9076;SDS011;4574;51.072;17.174;2023-11-18T08:01:49;14.47;;;9.37;;
9076;SDS011;4574;51.072;17.174;2023-11-18T08:04:21;16.97;;;9.80;;
9076;SDS011;4574;51.072;17.174;2023-11-18T08:06:50;13.60;;;9.47;;
9076;SDS011;4574;51.072;17.174;2023-11-18T08:09:19;14.53;;;9.40;;
9076;SDS011;4574;51.072;17.174;2023-11-18T08:11:52;15.50;;;9.17;;
9076;SDS011;4574;51.072;17.174;2023-11-18T08:14:22;15.50;;;9.23;;
9076;SDS011;4574;51.072;17.174;2023-11-18T08:16:51;12.87;;;9.10;;
9076;SDS011;4574;51.072;17.174;2023-11-18T08:19:21;19.50;;;9.43;;
9076;SDS011;4574;51.072;17.174;2023-11-18T08:21:50;11.83;;;8.43;;
9076;SDS011;4574;51.072;17.174;2023-11-18T08:24:18;12.53;;;9.00;;
9076;SDS011;4574;51.072;17.174;2023-11-18T08:26:48;12.77;;;8.83;;
9076;SDS011;4574;51.072;17.174;2023-11-18T08:29:16;12.37;;;8.27;;
9076;SDS011;4574;51.072;17.174;2023-11-18T08:31:45;15.50;;;9.57;;
9076;SDS011;4574;51.072;17.174;2023-11-18T08:34:14;13.07;;;9.27;;
9076;SDS011;4574;51.072;17.174;2023-11-18T08:36:46;14.03;;;8.40;;
9076;SDS011;4574;51.072;17.174;2023-11-18T08:39:17;11.80;;;8.47;;
9076;SDS011;4574;51.072;17.174;2023-11-18T08:41:48;13.13;;;9.17;;
9076;SDS011;4574;51.072;17.174;2023-11-18T08:44:18;12.23;;;8.63;;
9076;SDS011;4574;51.072;17.174;2023-11-18T08:46:50;11.53;;;8.00;;
9076;SDS011;4574;51.072;17.174;2023-11-18T08:49:20;15.63;;;9.07;;
9076;SDS011;4574;51.072;17.174;2023-11-18T08:51:50;13.47;;;8.67;;
9076;SDS011;4574;51.072;17.174;2023-11-18T08:54:23;12.53;;;8.80;;
9076;SDS011;4574;51.072;17.174;2023-11-18T08:57:04;12.70;;;8.53;;
9076;SDS011;4574;51.072;17.174;2023-11-18T08:59:50;11.10;;;8.40;;
9076;SDS011;4574;51.072;17.174;2023-11-18T09:02:18;14.13;;;9.67;;
9076;SDS011;4574;51.072;17.174;2023-11-18T09:04:50;14.00;;;10.10;;
9076;SDS011;4574;51.072;17.174;2023-11-18T09:07:21;10.30;;;7.97;;
9076;SDS011;4574;51.072;17.174;2023-11-18T09:09:50;12.63;;;8.27;;
9076;SDS011;4574;51.072;17.174;2023-11-18T09:12:19;14.10;;;8.73;;
9076;SDS011;4574;51.072;17.174;2023-11-18T09:14:48;13.27;;;8.83;;
9076;SDS011;4574;51.072;17.174;2023-11-18T09:17:19;13.90;;;8.80;;
9076;SDS011;4574;51.072;17.174;2023-11-18T09:19:49;14.07;;;9.47;;
9076;SDS011;4574;51.072;17.174;2023-11-18T09:22:19;14.70;;;9.17;;
9076;SDS011;4574;51.072;17.174;2023-11-18T09:24:51;14.77;;;8.80;;
9076;SDS011;4574;51.072;17.174;2023-11-18T09:27:19;13.27;;;8.37;;
9076;SDS011;4574;51.072;17.174;2023-11-18T09:29:49;12.27;;;7.77;;
9076;SDS011;4574;51.072;17.174;2023-11-18T09:32:18;13.53;;;8.87;;
9076;SDS011;4574;51.072;17.174;2023-11-18T09:34:46;13.87;;;8.87;;
9076;SDS011;4574;51.072;17.174;2023-11-18T09:37:15;13.23;;;8.43;;
9076;SDS011;4574;51.072;17.174;2023-11-18T09:39:44;13.60;;;8.77;;
9076;SDS011;4574;51.072;17.174;2023-11-18T09:42:14;13.20;;;10.03;;
9076;SDS011;4574;51.072;17.174;2023-11-18T09:44:46;11.77;;;7.67;;
9076;SDS011;4574;51.072;17.174;2023-11-18T09:47:15;13.07;;;8.20;;
9076;SDS011;4574;51.072;17.174;2023-11-18T09:49:51;14.03;;;9.23;;
9076;SDS011;4574;51.072;17.174;2023-11-18T09:52:26;13.67;;;8.73;;
9076;SDS011;4574;51.072;17.174;2023-11-18T09:55:01;13.83;;;8.83;;
9076;SDS011;4574;51.072;17.174;2023-11-18T09:57:33;13.37;;;8.70;;
9076;SDS011;4574;51.072;17.174;2023-11-18T10:00:08;12.03;;;8.87;;
9076;SDS011;4574;51.072;17.174;2023-11-18T10:02:47;11.20;;;8.17;;
9076;SDS011;4574;51.072;17.174;2023-11-18T10:05:19;12.37;;;7.83;;
9076;SDS011;4574;51.072;17.174;2023-11-18T10:07:49;13.17;;;8.53;;
9076;SDS011;4574;51.072;17.174;2023-11-18T10:10:18;14.87;;;8.93;;
9076;SDS011;4574;51.072;17.174;2023-11-18T10:12:50;13.50;;;8.40;;
9076;SDS011;4574;51.072;17.174;2023-11-18T10:15:20;13.27;;;9.03;;
9076;SDS011;4574;51.072;17.174;2023-11-18T10:17:50;13.43;;;8.53;;
9076;SDS011;4574;51.072;17.174;2023-11-18T10:20:42;13.30;;;8.93;;
9076;SDS011;4574;51.072;17.174;2023-11-18T10:23:13;13.60;;;9.20;;
9076;SDS011;4574;51.072;17.174;2023-11-18T10:25:46;12.23;;;8.63;;
9076;SDS011;4574;51.072;17.174;2023-11-18T10:28:23;12.87;;;8.03;;
9076;SDS011;4574;51.072;17.174;2023-11-18T10:30:54;14.23;;;9.87;;
9076;SDS011;4574;51.072;17.174;2023-11-18T10:33:25;26.77;;;22.07;;
9076;SDS011;4574;51.072;17.174;2023-11-18T10:35:57;12.43;;;8.33;;
9076;SDS011;4574;51.072;17.174;2023-11-18T10:38:30;14.77;;;8.47;;
9076;SDS011;4574;51.072;17.174;2023-11-18T10:41:03;11.13;;;7.73;;
9076;SDS011;4574;51.072;17.174;2023-11-18T10:43:35;12.33;;;7.97;;
9076;SDS011;4574;51.072;17.174;2023-11-18T10:46:04;12.10;;;6.93;;
9076;SDS011;4574;51.072;17.174;2023-11-18T10:48:42;9.97;;;7.03;;
9076;SDS011;4574;51.072;17.174;2023-11-18T10:51:14;9.43;;;6.63;;
9076;SDS011;4574;51.072;17.174;2023-11-18T10:53:46;8.90;;;6.80;;
9076;SDS011;4574;51.072;17.174;2023-11-18T10:56:25;12.03;;;7.60;;
9076;SDS011;4574;51.072;17.174;2023-11-18T10:58:57;10.50;;;7.10;;
9076;SDS011;4574;51.072;17.174;2023-11-18T11:01:27;9.97;;;7.10;;
9076;SDS011;4574;51.072;17.174;2023-11-18T11:03:58;11.53;;;7.40;;
9076;SDS011;4574;51.072;17.174;2023-11-18T11:06:32;9.07;;;6.77;;
9076;SDS011;4574;51.072;17.174;2023-11-18T11:09:01;12.50;;;7.20;;
9076;SDS011;4574;51.072;17.174;2023-11-18T11:11:39;9.63;;;7.17;;
9076;SDS011;4574;51.072;17.174;2023-11-18T11:14:15;13.37;;;9.23;;
9076;SDS011;4574;51.072;17.174;2023-11-18T11:16:50;16.67;;;10.07;;
9076;SDS011;4574;51.072;17.174;2023-11-18T11:19:24;11.43;;;8.17;;
9076;SDS011;4574;51.072;17.174;2023-11-18T11:22:00;15.47;;;8.73;;
9076;SDS011;4574;51.072;17.174;2023-11-18T11:24:37;11.80;;;8.07;;
9076;SDS011;4574;51.072;17.174;2023-11-18T11:27:23;11.80;;;7.70;;
9076;SDS011;4574;51.072;17.174;2023-11-18T11:30:06;11.20;;;7.03;;
9076;SDS011;4574;51.072;17.174;2023-11-18T11:32:45;13.47;;;8.33;;
9076;SDS011;4574;51.072;17.174;2023-11-18T11:35:22;40.80;;;20.77;;
9076;SDS011;4574;51.072;17.174;2023-11-18T11:37:52;42.13;;;25.13;;
9076;SDS011;4574;51.072;17.174;2023-11-18T11:40:24;42.50;;;26.93;;
9076;SDS011;4574;51.072;17.174;2023-11-18T11:42:56;30.43;;;17.13;;
9076;SDS011;4574;51.072;17.174;2023-11-18T11:45:29;63.73;;;26.93;;
9076;SDS011;4574;51.072;17.174;2023-11-18T11:47:58;68.53;;;30.57;;
9076;SDS011;4574;51.072;17.174;2023-11-18T11:50:50;50.80;;;22.47;;
9076;SDS011;4574;51.072;17.174;2023-11-18T11:53:42;102.80;;;35.90;;
9076;SDS011;4574;51.072;17.174;2023-11-18T11:56:15;34.00;;;17.73;;
9076;SDS011;4574;51.072;17.174;2023-11-18T11:58:47;43.93;;;20.70;;
9076;SDS011;4574;51.072;17.174;2023-11-18T12:01:26;124.17;;;32.03;;
9076;SDS011;4574;51.072;17.174;2023-11-18T12:04:00;322.57;;;75.50;;
9076;SDS011;4574;51.072;17.174;2023-11-18T12:06:34;160.53;;;39.17;;
9076;SDS011;4574;51.072;17.174;2023-11-18T12:09:10;130.70;;;35.20;;
9076;SDS011;4574;51.072;17.174;2023-11-18T12:11:46;141.90;;;40.73;;
9076;SDS011;4574;51.072;17.174;2023-11-18T12:14:17;235.70;;;64.93;;
9076;SDS011;4574;51.072;17.174;2023-11-18T12:17:13;190.47;;;55.47;;
9076;SDS011;4574;51.072;17.174;2023-11-18T12:19:48;55.43;;;23.60;;
9076;SDS011;4574;51.072;17.174;2023-11-18T12:22:18;50.17;;;20.30;;
9076;SDS011;4574;51.072;17.174;2023-11-18T12:28:10;85.53;;;33.40;;
9076;SDS011;4574;51.072;17.174;2023-11-18T12:30:44;21.17;;;13.63;;
9076;SDS011;4574;51.072;17.174;2023-11-18T12:43:10;20.70;;;12.37;;
9076;SDS011;4574;51.072;17.174;2023-11-18T12:48:58;21.00;;;13.47;;
9076;SDS011;4574;51.072;17.174;2023-11-18T12:51:32;14.93;;;10.87;;
9076;SDS011;4574;51.072;17.174;2023-11-18T12:54:03;34.97;;;21.00;;
9076;SDS011;4574;51.072;17.174;2023-11-18T12:56:33;14.27;;;9.40;;
9076;SDS011;4574;51.072;17.174;2023-11-18T12:59:03;25.07;;;15.60;;
9076;SDS011;4574;51.072;17.174;2023-11-18T13:01:33;26.37;;;16.17;;
9076;SDS011;4574;51.072;17.174;2023-11-18T13:04:04;20.70;;;14.23;;
9076;SDS011;4574;51.072;17.174;2023-11-18T13:06:33;16.37;;;10.53;;
9076;SDS011;4574;51.072;17.174;2023-11-18T13:09:02;16.10;;;8.93;;
9076;SDS011;4574;51.072;17.174;2023-11-18T13:11:36;18.80;;;11.37;;
9076;SDS011;4574;51.072;17.174;2023-11-18T13:14:09;29.70;;;15.17;;
9076;SDS011;4574;51.072;17.174;2023-11-18T13:16:38;27.10;;;15.00;;
9076;SDS011;4574;51.072;17.174;2023-11-18T13:19:09;25.87;;;15.57;;
9076;SDS011;4574;51.072;17.174;2023-11-18T13:21:38;52.63;;;25.17;;
9076;SDS011;4574;51.072;17.174;2023-11-18T13:24:08;32.80;;;17.93;;
9076;SDS011;4574;51.072;17.174;2023-11-18T13:26:38;22.07;;;13.03;;
9076;SDS011;4574;51.072;17.174;2023-11-18T13:29:07;15.80;;;10.97;;
9076;SDS011;4574;51.072;17.174;2023-11-18T13:31:36;18.00;;;10.80;;
9076;SDS011;4574;51.072;17.174;2023-11-18T13:34:05;13.60;;;9.03;;
9076;SDS011;4574;51.072;17.174;2023-11-18T13:36:36;20.87;;;12.33;;
9076;SDS011;4574;51.072;17.174;2023-11-18T13:39:05;24.03;;;14.47;;
9076;SDS011;4574;51.072;17.174;2023-11-18T13:41:33;18.47;;;12.37;;
9076;SDS011;4574;51.072;17.174;2023-11-18T13:44:03;15.43;;;11.47;;
9076;SDS011;4574;51.072;17.174;2023-11-18T13:46:32;35.30;;;18.87;;
9076;SDS011;4574;51.072;17.174;2023-11-18T13:49:00;35.90;;;19.63;;
9076;SDS011;4574;51.072;17.174;2023-11-18T13:51:32;21.93;;;14.37;;
9076;SDS011;4574;51.072;17.174;2023-11-18T13:54:04;14.53;;;10.27;;
9076;SDS011;4574;51.072;17.174;2023-11-18T13:56:33;15.97;;;10.20;;
9076;SDS011;4574;51.072;17.174;2023-11-18T13:59:02;18.17;;;12.13;;
9076;SDS011;4574;51.072;17.174;2023-11-18T14:01:32;21.50;;;14.00;;
9076;SDS011;4574;51.072;17.174;2023-11-18T14:04:00;19.60;;;13.20;;
9076;SDS011;4574;51.072;17.174;2023-11-18T14:06:31;20.90;;;13.60;;
9076;SDS011;4574;51.072;17.174;2023-11-18T14:08:59;26.50;;;16.73;;
9076;SDS011;4574;51.072;17.174;2023-11-18T14:11:29;25.63;;;16.33;;
9076;SDS011;4574;51.072;17.174;2023-11-18T14:13:58;19.37;;;13.63;;
9076;SDS011;4574;51.072;17.174;2023-11-18T14:16:27;45.33;;;26.97;;
9076;SDS011;4574;51.072;17.174;2023-11-18T14:18:56;61.83;;;32.07;;
9076;SDS011;4574;51.072;17.174;2023-11-18T14:21:24;111.00;;;49.77;;
9076;SDS011;4574;51.072;17.174;2023-11-18T14:23:53;135.17;;;55.07;;
9076;SDS011;4574;51.072;17.174;2023-11-18T14:26:26;79.17;;;36.27;;
9076;SDS011;4574;51.072;17.174;2023-11-18T14:28:57;27.57;;;16.53;;
9076;SDS011;4574;51.072;17.174;2023-11-18T14:31:26;18.73;;;12.70;;
9076;SDS011;4574;51.072;17.174;2023-11-18T14:33:55;33.53;;;27.20;;
9076;SDS011;4574;51.072;17.174;2023-11-18T14:36:25;20.70;;;14.20;;
9076;SDS011;4574;51.072;17.174;2023-11-18T14:38:54;17.33;;;11.63;;
9076;SDS011;4574;51.072;17.174;2023-11-18T14:41:23;23.63;;;14.47;;
9076;SDS011;4574;51.072;17.174;2023-11-18T14:43:57;21.37;;;14.57;;
9076;SDS011;4574;51.072;17.174;2023-11-18T14:46:27;17.80;;;11.57;;
9076;SDS011;4574;51.072;17.174;2023-11-18T14:48:57;16.17;;;11.00;;
9076;SDS011;4574;51.072;17.174;2023-11-18T14:51:26;15.40;;;11.00;;
9076;SDS011;4574;51.072;17.174;2023-11-18T14:53:54;50.13;;;22.73;;
9076;SDS011;4574;51.072;17.174;2023-11-18T14:56:23;69.10;;;32.03;;
9076;SDS011;4574;51.072;17.174;2023-11-18T14:58:51;60.50;;;29.20;;
9076;SDS011;4574;51.072;17.174;2023-11-18T15:01:21;40.97;;;22.13;;
9076;SDS011;4574;51.072;17.174;2023-11-18T15:03:50;34.33;;;18.80;;
9076;SDS011;4574;51.072;17.174;2023-11-18T15:06:24;19.30;;;13.03;;
9076;SDS011;4574;51.072;17.174;2023-11-18T15:08:52;20.00;;;12.80;;
9076;SDS011;4574;51.072;17.174;2023-11-18T15:11:24;19.03;;;11.00;;
9076;SDS011;4574;51.072;17.174;2023-11-18T15:13:53;20.63;;;12.73;;
9076;SDS011;4574;51.072;17.174;2023-11-18T15:16:24;22.73;;;14.27;;
9076;SDS011;4574;51.072;17.174;2023-11-18T15:18:54;21.07;;;14.10;;
9076;SDS011;4574;51.072;17.174;2023-11-18T15:21:23;22.40;;;14.67;;
9076;SDS011;4574;51.072;17.174;2023-11-18T15:23:52;29.10;;;17.53;;
9076;SDS011;4574;51.072;17.174;2023-11-18T15:26:26;26.53;;;16.87;;
9076;SDS011;4574;51.072;17.174;2023-11-18T15:28:54;23.37;;;16.27;;